createdAt,value
2023-09-01T00:02:22.564Z,75.85
2023-09-01T00:04:56.758Z,75.94
2023-09-01T00:07:23.567Z,75.74
2023-09-01T00:09:53.701Z,75.59
2023-09-01T00:12:20.556Z,75.61
2023-09-01T00:14:47.626Z,75.57
2023-09-01T00:17:15.151Z,75.44
2023-09-01T00:19:42.184Z,75.48
2023-09-01T00:22:09.135Z,75.36
2023-09-01T00:24:36.910Z,75.34
2023-09-01T00:27:04.246Z,75.29
2023-09-01T00:29:34.163Z,75.09
2023-09-01T00:32:01.858Z,75.26
2023-09-01T00:34:31.045Z,75.15
2023-09-01T00:36:58.289Z,75.23
2023-09-01T00:39:25.541Z,75.02
2023-09-01T00:41:52.390Z,75.15
2023-09-01T00:44:19.325Z,75.00
2023-09-01T00:46:47.226Z,75.05
2023-09-01T00:49:18.593Z,75.01
2023-09-01T00:51:47.740Z,74.75
2023-09-01T00:54:15.742Z,74.52
2023-09-01T00:56:44.110Z,74.35
2023-09-01T00:59:11.764Z,74.31
2023-09-01T01:01:39.141Z,74.24
2023-09-01T01:04:08.475Z,74.32
2023-09-01T01:06:39.862Z,74.25
2023-09-01T01:09:27.071Z,74.44
2023-09-01T01:12:02.467Z,74.41
2023-09-01T01:14:52.102Z,74.17
2023-09-01T01:17:19.918Z,73.83
2023-09-01T01:19:51.587Z,73.76
2023-09-01T01:22:35.257Z,73.73
2023-09-01T01:25:09.062Z,73.91
2023-09-01T01:27:36.540Z,73.94
2023-09-01T01:30:05.826Z,74.28
2023-09-01T01:32:33.700Z,74.65
2023-09-01T01:35:20.177Z,75.04
2023-09-01T01:38:17.398Z,75.00
2023-09-01T01:40:48.577Z,75.07
2023-09-01T01:43:21.857Z,74.99
2023-09-01T01:45:50.391Z,74.88
2023-09-01T01:48:17.798Z,74.83
2023-09-01T01:50:45.481Z,74.69
2023-09-01T01:53:13.706Z,74.92
2023-09-01T01:55:40.732Z,74.94
2023-09-01T01:58:07.661Z,74.95
2023-09-01T02:00:35.733Z,75.02
2023-09-01T02:03:05.352Z,74.45
2023-09-01T02:05:33.330Z,74.71
2023-09-01T02:08:00.261Z,74.90
2023-09-01T02:10:28.148Z,75.09
2023-09-01T02:12:55.815Z,75.28
2023-09-01T02:15:22.757Z,75.53
2023-09-01T02:17:49.543Z,75.60
2023-09-01T02:20:19.163Z,75.54
2023-09-01T02:22:49.097Z,75.53
2023-09-01T02:25:16.034Z,75.56
2023-09-01T02:27:43.686Z,75.40
2023-09-01T02:30:12.446Z,75.42
2023-09-01T02:32:40.384Z,75.55
2023-09-01T02:35:09.225Z,75.57
2023-09-01T02:37:37.616Z,75.22
2023-09-01T02:40:11.650Z,75.11
2023-09-01T02:42:43.186Z,75.17
2023-09-01T02:45:14.463Z,75.29
2023-09-01T02:47:41.623Z,75.33
2023-09-01T02:50:09.151Z,75.62
2023-09-01T02:52:36.482Z,75.81
2023-09-01T02:55:07.011Z,75.87
2023-09-01T02:57:34.180Z,75.77
2023-09-01T03:00:01.785Z,76.02
2023-09-01T03:02:29.766Z,76.14
2023-09-01T03:04:57.664Z,75.94
2023-09-01T03:07:25.310Z,75.93
2023-09-01T03:09:52.391Z,75.96
2023-09-01T03:12:19.334Z,76.45
2023-09-01T03:14:46.474Z,76.85
2023-09-01T03:17:13.427Z,76.81
2023-09-01T03:19:40.255Z,77.07
2023-09-01T03:22:07.130Z,77.37
2023-09-01T03:24:35.280Z,77.28
2023-09-01T03:27:02.429Z,77.01
2023-09-01T03:29:29.581Z,76.95
2023-09-01T03:31:56.490Z,76.80
2023-09-01T03:34:24.509Z,76.99
2023-09-01T03:36:51.445Z,77.09
2023-09-01T03:39:18.998Z,77.11
2023-09-01T03:41:46.152Z,77.24
2023-09-01T03:44:13.085Z,77.26
2023-09-01T03:46:40.974Z,77.50
2023-09-01T03:49:07.816Z,77.50
2023-09-01T03:51:34.644Z,77.54
2023-09-01T03:54:01.598Z,77.60
2023-09-01T03:56:29.239Z,77.63
2023-09-01T03:58:57.323Z,77.59
2023-09-01T04:01:24.210Z,77.63
2023-09-01T04:03:51.352Z,77.63
2023-09-01T04:06:18.475Z,77.68
2023-09-01T04:08:45.514Z,77.50
2023-09-01T04:11:12.469Z,77.64
2023-09-01T04:13:39.260Z,77.65
2023-09-01T04:16:06.605Z,77.72
2023-09-01T04:18:34.475Z,77.59
2023-09-01T04:21:02.453Z,77.44
2023-09-01T04:23:29.390Z,77.25
2023-09-01T04:25:57.470Z,77.18
2023-09-01T04:28:24.986Z,76.86
2023-09-01T04:30:51.928Z,76.82
2023-09-01T04:33:19.371Z,76.67
2023-09-01T04:35:57.070Z,76.73
2023-09-01T04:38:24.120Z,76.88
2023-09-01T04:40:58.521Z,76.83
2023-09-01T04:43:27.458Z,76.49
2023-09-01T04:45:56.160Z,76.38
2023-09-01T04:48:24.628Z,76.35
2023-09-01T04:50:52.364Z,76.25
2023-09-01T04:53:21.469Z,76.35
2023-09-01T04:55:51.472Z,76.53
2023-09-01T04:58:18.939Z,76.53
2023-09-01T05:00:46.159Z,76.70
2023-09-01T05:03:14.246Z,77.09
2023-09-01T05:05:42.331Z,77.55
2023-09-01T05:08:09.488Z,77.51
2023-09-01T05:10:36.824Z,77.54
2023-09-01T05:13:05.116Z,77.65
2023-09-01T05:15:32.476Z,77.59
2023-09-01T05:18:00.691Z,77.47
2023-09-01T05:20:28.303Z,77.48
2023-09-01T05:22:55.565Z,77.46
2023-09-01T05:25:23.317Z,77.24
2023-09-01T05:27:50.475Z,77.10
2023-09-01T05:30:18.153Z,77.02
2023-09-01T05:32:45.854Z,76.89
2023-09-01T05:35:13.057Z,76.63
2023-09-01T05:37:40.163Z,76.67
2023-09-01T05:40:09.075Z,76.94
2023-09-01T05:42:36.143Z,76.80
2023-09-01T05:45:03.594Z,76.65
2023-09-01T05:47:30.946Z,76.70
2023-09-01T05:49:58.409Z,76.66
2023-09-01T05:52:26.694Z,76.65
2023-09-01T05:54:53.934Z,76.74
2023-09-01T05:57:21.093Z,76.64
2023-09-01T05:59:48.341Z,76.80
2023-09-01T06:02:15.430Z,76.71
2023-09-01T06:04:42.850Z,76.59
2023-09-01T06:07:10.111Z,76.75
2023-09-01T06:09:37.237Z,76.77
2023-09-01T06:12:05.109Z,76.99
2023-09-01T06:14:32.367Z,76.91
2023-09-01T06:17:00.009Z,76.61
2023-09-01T06:19:27.297Z,75.88
2023-09-01T06:21:54.518Z,75.42
2023-09-01T06:24:21.784Z,75.07
2023-09-01T06:26:49.185Z,74.90
2023-09-01T06:29:16.901Z,74.49
2023-09-01T06:31:44.533Z,74.49
2023-09-01T06:34:11.903Z,74.71
2023-09-01T06:36:39.180Z,74.40
2023-09-01T06:39:06.928Z,73.85
2023-09-01T06:41:34.698Z,73.69
2023-09-01T06:44:03.283Z,73.28
2023-09-01T06:46:30.734Z,72.72
2023-09-01T06:48:57.981Z,72.26
2023-09-01T06:51:25.173Z,72.11
2023-09-01T06:53:52.829Z,72.20
2023-09-01T06:56:20.282Z,71.89
2023-09-01T06:58:47.828Z,71.20
2023-09-01T07:01:17.391Z,71.02
2023-09-01T07:03:49.778Z,70.74
2023-09-01T07:06:28.432Z,70.15
2023-09-01T07:08:56.385Z,69.59
2023-09-01T07:11:23.751Z,69.31
2023-09-01T07:13:56.404Z,68.83
2023-09-01T07:16:24.759Z,69.05
2023-09-01T07:18:51.933Z,68.99
2023-09-01T07:21:18.897Z,68.38
2023-09-01T07:23:48.393Z,67.38
2023-09-01T07:26:16.462Z,67.01
2023-09-01T07:28:44.128Z,66.73
2023-09-01T07:31:13.379Z,66.43
2023-09-01T07:33:44.302Z,65.70
2023-09-01T07:36:12.680Z,64.87
2023-09-01T07:38:40.923Z,64.81
2023-09-01T07:41:09.559Z,64.52
2023-09-01T07:43:37.173Z,64.56
2023-09-01T07:46:04.551Z,63.77
2023-09-01T07:48:32.545Z,63.23
2023-09-01T07:51:00.521Z,63.27
2023-09-01T07:53:27.834Z,63.31
2023-09-01T07:55:56.226Z,63.43
2023-09-01T07:58:23.484Z,62.85
2023-09-01T08:00:52.825Z,61.13
2023-09-01T08:03:20.583Z,61.10
2023-09-01T08:05:48.197Z,61.05
2023-09-01T08:08:16.150Z,61.09
2023-09-01T08:10:43.919Z,60.66
2023-09-01T08:13:12.104Z,59.84
2023-09-01T08:15:40.560Z,59.73
2023-09-01T08:18:08.148Z,59.70
2023-09-01T08:20:37.205Z,59.12
2023-09-01T08:23:06.133Z,58.58
2023-09-01T08:25:36.639Z,58.69
2023-09-01T08:28:05.949Z,57.59
2023-09-01T08:30:35.602Z,56.89
2023-09-01T08:33:05.092Z,56.67
2023-09-01T08:35:33.242Z,55.38
2023-09-01T08:38:01.211Z,54.90
2023-09-01T08:40:28.248Z,54.60
2023-09-01T08:42:57.862Z,55.33
2023-09-01T08:45:27.049Z,54.75
2023-09-01T08:47:54.379Z,53.98
2023-09-01T08:50:22.180Z,53.33
2023-09-01T08:52:49.942Z,52.93
2023-09-01T08:55:18.847Z,53.51
2023-09-01T08:57:49.858Z,54.07
2023-09-01T09:00:17.467Z,53.25
2023-09-01T09:03:04.916Z,53.18
2023-09-01T09:05:34.802Z,52.79
2023-09-01T09:08:06.808Z,52.49
2023-09-01T09:10:36.167Z,52.66
2023-09-01T09:13:26.202Z,52.30
2023-09-01T09:16:09.376Z,50.52
2023-09-01T09:18:38.109Z,50.40
2023-09-01T09:21:29.350Z,50.56
2023-09-01T09:24:15.293Z,50.66
2023-09-01T09:26:46.179Z,49.91
2023-09-01T09:29:15.374Z,50.01
2023-09-01T09:31:42.491Z,49.33
2023-09-01T09:34:16.466Z,48.73
2023-09-01T09:36:46.500Z,47.69
2023-09-01T09:39:28.028Z,48.16
2023-09-01T09:41:57.536Z,48.94
2023-09-01T09:44:34.625Z,49.01
2023-09-01T09:47:11.133Z,49.59
2023-09-01T09:49:39.069Z,49.17
2023-09-01T09:52:10.507Z,49.04
2023-09-01T09:54:39.423Z,48.77
2023-09-01T09:57:13.270Z,48.84
2023-09-01T09:59:56.030Z,49.96
2023-09-01T10:02:37.544Z,48.48
2023-09-01T10:05:05.804Z,49.42
2023-09-01T10:07:34.513Z,49.15
2023-09-01T10:10:03.156Z,48.38
2023-09-01T10:12:30.823Z,49.04
2023-09-01T10:14:58.689Z,49.65
2023-09-01T10:17:26.799Z,49.34
2023-09-01T10:19:55.443Z,50.35
2023-09-01T10:22:23.019Z,50.20
2023-09-01T10:25:10.035Z,48.85
2023-09-01T10:27:37.784Z,47.97
2023-09-01T10:30:44.693Z,48.36
2023-09-01T10:33:13.574Z,47.84
2023-09-01T10:35:48.501Z,47.99
2023-09-01T10:38:21.376Z,47.37
2023-09-01T10:40:55.455Z,47.04
2023-09-01T10:43:37.859Z,47.64
2023-09-01T10:46:14.645Z,47.03
2023-09-01T10:48:52.918Z,47.59
2023-09-01T10:51:25.592Z,47.79
2023-09-01T10:53:54.898Z,46.99
2023-09-01T10:56:23.395Z,46.69
2023-09-01T10:58:53.214Z,46.09
2023-09-01T11:01:39.233Z,46.44
2023-09-01T11:04:16.664Z,47.57
2023-09-01T11:07:00.998Z,47.97
2023-09-01T11:09:37.438Z,47.02
2023-09-01T11:12:06.992Z,47.36
2023-09-01T11:14:37.114Z,48.46
2023-09-01T11:17:04.750Z,48.31
2023-09-01T11:19:48.411Z,48.48
2023-09-01T11:22:16.055Z,48.31
2023-09-01T11:24:47.130Z,48.16
2023-09-01T11:27:14.663Z,48.21
2023-09-01T11:29:42.331Z,47.23
2023-09-01T11:32:10.292Z,47.81
2023-09-01T11:34:39.181Z,46.43
2023-09-01T11:37:07.983Z,47.43
2023-09-01T11:39:36.755Z,47.82
2023-09-01T11:42:04.963Z,47.37
2023-09-01T11:44:32.222Z,47.09
2023-09-01T11:46:59.648Z,47.44
2023-09-01T11:49:27.364Z,47.66
2023-09-01T11:52:00.102Z,47.72
2023-09-01T11:54:40.679Z,47.85
2023-09-01T11:57:15.280Z,48.12
2023-09-01T11:59:47.051Z,47.72
2023-09-01T12:02:18.814Z,48.06
2023-09-01T12:04:50.288Z,48.12
2023-09-01T12:07:31.534Z,48.20
2023-09-01T12:09:59.104Z,48.65
2023-09-01T12:12:37.801Z,47.89
2023-09-01T12:15:06.108Z,46.79
2023-09-01T12:17:35.801Z,47.77
2023-09-01T12:20:03.397Z,47.13
2023-09-01T12:22:31.215Z,47.73
2023-09-01T12:25:01.312Z,47.00
2023-09-01T12:27:31.814Z,46.30
2023-09-01T12:29:59.273Z,45.97
2023-09-01T12:32:28.565Z,45.39
2023-09-01T12:34:55.964Z,46.73
2023-09-01T12:37:23.496Z,47.83
2023-09-01T12:39:51.828Z,47.60
2023-09-01T12:42:19.107Z,47.48
2023-09-01T12:44:46.660Z,47.24
2023-09-01T12:47:14.053Z,47.66
2023-09-01T12:49:44.496Z,46.04
2023-09-01T12:52:11.873Z,46.19
2023-09-01T12:54:39.047Z,45.78
2023-09-01T12:57:07.467Z,45.90
2023-09-01T12:59:36.083Z,46.15
2023-09-01T13:02:04.692Z,45.46
2023-09-01T13:04:33.851Z,45.65
2023-09-01T13:07:04.497Z,46.38
2023-09-01T13:09:32.560Z,46.17
2023-09-01T13:11:59.833Z,46.76
2023-09-01T13:14:28.001Z,46.86
2023-09-01T13:16:55.357Z,46.43
2023-09-01T13:19:22.471Z,45.27
2023-09-01T13:21:49.451Z,44.78
2023-09-01T13:24:16.550Z,45.27
2023-09-01T13:26:44.566Z,45.78
2023-09-01T13:29:11.918Z,45.73
2023-09-01T13:31:39.066Z,46.59
2023-09-01T13:34:07.866Z,46.86
2023-09-01T13:36:35.250Z,46.88
2023-09-01T13:39:02.467Z,47.31
2023-09-01T13:41:30.852Z,47.86
2023-09-01T13:43:58.431Z,47.18
2023-09-01T13:46:27.633Z,46.96
2023-09-01T13:48:56.805Z,46.80
2023-09-01T13:51:24.981Z,47.08
2023-09-01T13:53:55.322Z,47.04
2023-09-01T13:56:25.434Z,47.24
2023-09-01T13:58:55.584Z,47.50
2023-09-01T14:01:28.136Z,47.45
2023-09-01T14:03:57.127Z,48.28
2023-09-01T14:06:26.607Z,48.08
2023-09-01T14:08:55.301Z,46.90
2023-09-01T14:11:26.124Z,46.02
2023-09-01T14:13:53.789Z,45.66
2023-09-01T14:16:32.118Z,45.80
2023-09-01T14:19:00.803Z,46.93
2023-09-01T14:21:27.836Z,47.85
2023-09-01T14:23:55.195Z,47.23
2023-09-01T14:26:23.171Z,47.25
2023-09-01T14:28:51.155Z,47.18
2023-09-01T14:31:19.496Z,47.78
2023-09-01T14:33:48.657Z,47.28
2023-09-01T14:36:16.383Z,47.70
2023-09-01T14:38:43.355Z,47.31
2023-09-01T14:41:20.710Z,47.07
2023-09-01T14:43:48.302Z,47.74
2023-09-01T14:46:18.371Z,48.27
2023-09-01T14:48:47.356Z,48.60
2023-09-01T14:51:15.955Z,48.45
2023-09-01T14:53:45.682Z,48.59
2023-09-01T14:56:15.633Z,49.12
2023-09-01T14:58:43.790Z,48.98
2023-09-01T15:01:10.923Z,49.00
2023-09-01T15:03:38.767Z,47.56
2023-09-01T15:06:06.449Z,47.98
2023-09-01T15:08:33.854Z,49.50
2023-09-01T15:11:04.988Z,50.13
2023-09-01T15:13:32.914Z,50.74
2023-09-01T15:16:00.019Z,50.45
2023-09-01T15:18:27.624Z,50.82
2023-09-01T15:21:21.403Z,50.82
2023-09-01T15:23:50.374Z,51.22
2023-09-01T15:26:18.054Z,50.77
2023-09-01T15:28:52.688Z,51.08
2023-09-01T15:31:20.561Z,51.72
2023-09-01T15:33:48.116Z,51.76
2023-09-01T15:36:15.876Z,51.87
2023-09-01T15:38:44.153Z,52.04
2023-09-01T15:41:12.642Z,51.94
2023-09-01T15:43:39.978Z,51.80
2023-09-01T15:46:10.888Z,52.32
2023-09-01T15:48:41.561Z,52.59
2023-09-01T15:51:09.251Z,52.84
2023-09-01T15:53:36.876Z,52.95
2023-09-01T15:56:05.729Z,52.99
2023-09-01T15:58:33.318Z,53.20
2023-09-01T16:01:14.048Z,53.50
2023-09-01T16:03:53.828Z,53.44
2023-09-01T16:06:26.944Z,53.60
2023-09-01T16:08:56.027Z,54.10
2023-09-01T16:11:23.281Z,54.21
2023-09-01T16:13:52.496Z,54.54
2023-09-01T16:16:24.243Z,54.60
2023-09-01T16:18:52.060Z,55.09
2023-09-01T16:21:23.697Z,55.58
2023-09-01T16:23:56.662Z,55.38
2023-09-01T16:26:24.534Z,55.56
2023-09-01T16:28:52.521Z,55.48
2023-09-01T16:31:23.631Z,55.77
2023-09-01T16:33:53.439Z,56.03
2023-09-01T16:36:20.929Z,56.31
2023-09-01T16:38:49.595Z,56.78
2023-09-01T16:41:17.590Z,56.82
2023-09-01T16:43:45.430Z,56.98
2023-09-01T16:46:13.081Z,56.95
2023-09-01T16:48:42.106Z,57.01
2023-09-01T16:51:09.453Z,57.32
2023-09-01T16:53:36.861Z,57.69
2023-09-01T16:56:04.485Z,57.95
2023-09-01T16:58:31.654Z,57.87
2023-09-01T17:00:59.072Z,57.90
2023-09-01T17:03:26.316Z,58.06
2023-09-01T17:05:53.729Z,58.08
2023-09-01T17:08:20.884Z,58.15
2023-09-01T17:10:51.492Z,58.36
2023-09-01T17:13:18.674Z,58.49
2023-09-01T17:15:46.328Z,58.68
2023-09-01T17:18:13.778Z,58.87
2023-09-01T17:21:01.020Z,58.95
2023-09-01T17:23:29.194Z,59.11
2023-09-01T17:25:56.334Z,59.28
2023-09-01T17:28:24.262Z,59.42
2023-09-01T17:30:51.545Z,59.59
2023-09-01T17:33:19.733Z,59.92
2023-09-01T17:35:49.584Z,60.19
2023-09-01T17:38:17.421Z,60.56
2023-09-01T17:40:45.287Z,60.97
2023-09-01T17:43:12.691Z,61.48
2023-09-01T17:45:40.442Z,61.76
2023-09-01T17:48:07.945Z,61.99
2023-09-01T17:50:35.950Z,62.22
2023-09-01T17:53:06.100Z,62.53
2023-09-01T17:55:50.263Z,62.64
2023-09-01T17:58:19.017Z,62.98
2023-09-01T18:00:49.610Z,63.20
2023-09-01T18:03:19.047Z,63.48
2023-09-01T18:05:47.363Z,63.71
2023-09-01T18:08:15.126Z,64.04
2023-09-01T18:10:42.885Z,64.11
2023-09-01T18:13:12.625Z,64.44
2023-09-01T18:15:39.973Z,64.43
2023-09-01T18:18:07.995Z,64.56
2023-09-01T18:20:35.437Z,64.70
2023-09-01T18:23:03.879Z,64.57
2023-09-01T18:25:33.891Z,64.83
2023-09-01T18:28:02.166Z,64.92
2023-09-01T18:30:30.357Z,65.08
2023-09-01T18:33:07.530Z,65.37
2023-09-01T18:35:36.952Z,65.77
2023-09-01T18:38:13.874Z,65.97
2023-09-01T18:40:41.280Z,66.33
2023-09-01T18:43:10.875Z,66.57
2023-09-01T18:45:39.979Z,66.81
2023-09-01T18:48:12.522Z,66.88
2023-09-01T18:50:43.891Z,66.93
2023-09-01T18:53:12.674Z,67.13
2023-09-01T18:55:45.710Z,67.05
2023-09-01T18:58:14.712Z,67.17
2023-09-01T19:00:43.628Z,67.14
2023-09-01T19:03:11.308Z,67.19
2023-09-01T19:05:42.630Z,67.27
2023-09-01T19:08:13.366Z,67.40
2023-09-01T19:10:42.129Z,67.35
2023-09-01T19:13:11.732Z,67.50
2023-09-01T19:15:39.873Z,67.59
2023-09-01T19:18:16.067Z,67.64
2023-09-01T19:20:44.038Z,67.84
2023-09-01T19:23:30.305Z,68.05
2023-09-01T19:26:01.914Z,68.26
2023-09-01T19:28:37.843Z,68.52
2023-09-01T19:31:10.284Z,68.76
2023-09-01T19:33:41.591Z,69.09
2023-09-01T19:36:12.064Z,69.31
2023-09-01T19:38:41.637Z,69.38
2023-09-01T19:41:10.592Z,69.50
2023-09-01T19:43:41.536Z,69.56
2023-09-01T19:46:09.352Z,69.69
2023-09-01T19:48:38.918Z,69.82
2023-09-01T19:51:08.490Z,69.97
2023-09-01T19:53:39.370Z,70.08
2023-09-01T19:56:15.690Z,70.27
2023-09-01T19:58:45.252Z,70.34
2023-09-01T20:01:22.788Z,70.60
2023-09-01T20:03:51.717Z,70.71
2023-09-01T20:06:25.877Z,70.91
2023-09-01T20:08:57.284Z,71.00
2023-09-01T20:11:26.207Z,71.35
2023-09-01T20:13:55.169Z,71.35
2023-09-01T20:16:26.803Z,71.58
2023-09-01T20:18:54.264Z,71.65
2023-09-01T20:21:22.542Z,71.93
2023-09-01T20:23:50.807Z,72.30
2023-09-01T20:26:19.492Z,72.30
2023-09-01T20:28:47.073Z,72.29
2023-09-01T20:31:15.552Z,72.45
2023-09-01T20:33:43.436Z,72.83
2023-09-01T20:36:11.189Z,72.77
2023-09-01T20:38:40.658Z,72.91
2023-09-01T20:41:08.876Z,72.82
2023-09-01T20:43:36.458Z,73.00
2023-09-01T20:46:05.056Z,73.36
2023-09-01T20:48:32.772Z,73.54
2023-09-01T20:51:00.118Z,73.91
2023-09-01T20:53:28.311Z,74.12
2023-09-01T20:55:56.064Z,74.48
2023-09-01T20:58:23.513Z,74.65
2023-09-01T21:00:50.769Z,74.85
2023-09-01T21:03:18.834Z,75.13
2023-09-01T21:05:49.339Z,75.47
2023-09-01T21:08:17.127Z,75.63
2023-09-01T21:10:44.898Z,75.78
2023-09-01T21:13:12.718Z,76.14
2023-09-01T21:15:41.160Z,76.51
2023-09-01T21:18:08.414Z,76.70
2023-09-01T21:20:35.749Z,76.91
2023-09-01T21:23:04.443Z,77.06
2023-09-01T21:25:35.166Z,77.29
2023-09-01T21:28:02.929Z,77.62
2023-09-01T21:30:30.337Z,77.72
2023-09-01T21:32:57.734Z,77.86
2023-09-01T21:35:31.030Z,77.94
2023-09-01T21:37:59.615Z,78.26
2023-09-01T21:40:27.078Z,78.38
2023-09-01T21:42:58.063Z,78.45
2023-09-01T21:45:26.450Z,78.51
2023-09-01T21:47:56.382Z,78.55
2023-09-01T21:50:24.177Z,78.70
2023-09-01T21:52:52.645Z,78.69
2023-09-01T21:55:20.154Z,78.85
2023-09-01T21:57:49.001Z,79.00
2023-09-01T22:00:16.914Z,79.18
2023-09-01T22:02:44.840Z,79.32
2023-09-01T22:05:13.015Z,79.53
2023-09-01T22:07:40.281Z,79.57
2023-09-01T22:10:09.555Z,79.54
2023-09-01T22:12:36.924Z,79.54
2023-09-01T22:15:04.595Z,79.61
2023-09-01T22:17:31.889Z,79.45
2023-09-01T22:19:59.199Z,79.39
2023-09-01T22:22:26.353Z,79.51
2023-09-01T22:24:53.501Z,79.71
2023-09-01T22:27:20.637Z,79.70
2023-09-01T22:29:47.901Z,79.74
2023-09-01T22:32:15.179Z,79.89
2023-09-01T22:34:42.805Z,80.01
2023-09-01T22:37:10.969Z,80.14
2023-09-01T22:39:38.846Z,80.30
2023-09-01T22:42:06.850Z,80.53
2023-09-01T22:44:34.292Z,80.72
2023-09-01T22:47:03.278Z,80.86
2023-09-01T22:49:33.622Z,81.08
2023-09-01T22:52:00.854Z,81.18
2023-09-01T22:54:28.100Z,81.33
2023-09-01T22:56:55.162Z,81.54
2023-09-01T22:59:22.517Z,81.68
2023-09-01T23:01:51.138Z,81.92
2023-09-01T23:04:23.502Z,81.94
2023-09-01T23:06:54.502Z,81.76
2023-09-01T23:09:23.758Z,81.93
2023-09-01T23:11:54.660Z,82.00
2023-09-01T23:14:23.840Z,82.09
2023-09-01T23:16:54.928Z,82.30
2023-09-01T23:19:24.951Z,82.35
2023-09-01T23:21:54.906Z,82.56
2023-09-01T23:24:25.269Z,82.66
2023-09-01T23:26:56.683Z,82.65
2023-09-01T23:29:29.081Z,82.66
2023-09-01T23:32:08.790Z,82.63
2023-09-01T23:34:41.330Z,82.75
2023-09-01T23:37:11.421Z,82.94
2023-09-01T23:39:49.975Z,83.06
2023-09-01T23:42:21.564Z,83.13
2023-09-01T23:44:52.012Z,83.19
2023-09-01T23:47:21.770Z,83.44
2023-09-01T23:49:49.583Z,83.38
2023-09-01T23:52:16.964Z,83.44
2023-09-01T23:54:45.207Z,83.73
2023-09-01T23:57:14.668Z,83.83
2023-09-01T23:59:45.344Z,83.97
